DLH4241 EDDM-LTFM
Flight info
| Callsign | DLH4241 |
|---|---|
| Flight time | 2h 9m |
| Altitude | 41000 |
| Route | KIRDI2Q KIRDI DCT BUBSE DCT GOTAR DCT NALOX DCT BABIT DCT KOTUS DCT IRGOR DCT ETIDA T390 RILEX |
| Aircraft | A333/H-SDE3GHIJ2J3J5M1RVWXY/LB2D1 |
Departure
| Time | 2026-05-06 13:00 |
|---|---|
| Airport | Munich Airport (EDDM) |
Arrival
| Time | 2026-05-06 15:09 |
|---|---|
| Airport | İstanbul Airport (LTFM) |
| Time | Latitude | Longitude | Altitude | Speed | Heading |
|---|---|---|---|---|---|
| 2026-05-06 12:14 | 48.35715 | 11.77835 | 1468 ft | 0 kts | 83° |
| 2026-05-06 12:45 | 48.35714 | 11.77834 | 1468 ft | 0 kts | 84° |
| 2026-05-06 12:45 | 48.35714 | 11.77831 | 1468 ft | 1 kts | 85° |
| 2026-05-06 12:46 | 48.35713 | 11.77809 | 1468 ft | 2 kts | 86° |
| 2026-05-06 12:46 | 48.35712 | 11.77786 | 1468 ft | 2 kts | 83° |
| 2026-05-06 12:46 | 48.35710 | 11.77764 | 1468 ft | 2 kts | 83° |
| 2026-05-06 12:46 | 48.35709 | 11.77741 | 1468 ft | 2 kts | 110° |
| 2026-05-06 12:47 | 48.35717 | 11.77723 | 1468 ft | 2 kts | 152° |
| 2026-05-06 12:47 | 48.35726 | 11.77718 | 1468 ft | 0 kts | 175° |
| 2026-05-06 12:47 | 48.35730 | 11.77717 | 1468 ft | 0 kts | 174° |
| 2026-05-06 12:50 | 48.35729 | 11.77717 | 1468 ft | 2 kts | 174° |
| 2026-05-06 12:50 | 48.35652 | 11.77729 | 1469 ft | 16 kts | 174° |
| 2026-05-06 12:50 | 48.35573 | 11.77741 | 1471 ft | 7 kts | 174° |
| 2026-05-06 12:50 | 48.35522 | 11.77749 | 1472 ft | 6 kts | 174° |
| 2026-05-06 12:51 | 48.35451 | 11.77762 | 1473 ft | 13 kts | 173° |
| 2026-05-06 12:51 | 48.35336 | 11.77784 | 1475 ft | 18 kts | 173° |
| 2026-05-06 12:51 | 48.35209 | 11.77807 | 1475 ft | 16 kts | 174° |
| 2026-05-06 12:51 | 48.35097 | 11.77826 | 1476 ft | 15 kts | 173° |
| 2026-05-06 12:52 | 48.35029 | 11.77838 | 1475 ft | 16 kts | 174° |
| 2026-05-06 12:52 | 48.34892 | 11.77861 | 1475 ft | 18 kts | 174° |
| 2026-05-06 12:52 | 48.34791 | 11.77878 | 1475 ft | 13 kts | 173° |
| 2026-05-06 12:52 | 48.34690 | 11.77883 | 1475 ft | 14 kts | 201° |
| 2026-05-06 12:53 | 48.34657 | 11.77795 | 1476 ft | 12 kts | 259° |
| 2026-05-06 12:53 | 48.34642 | 11.77631 | 1479 ft | 14 kts | 264° |
| 2026-05-06 12:53 | 48.34631 | 11.77467 | 1479 ft | 18 kts | 264° |
| 2026-05-06 12:53 | 48.34616 | 11.77257 | 1479 ft | 22 kts | 264° |
| 2026-05-06 12:54 | 48.34598 | 11.77009 | 1479 ft | 24 kts | 263° |
| 2026-05-06 12:54 | 48.34580 | 11.76782 | 1480 ft | 20 kts | 263° |
| 2026-05-06 12:54 | 48.34564 | 11.76580 | 1482 ft | 18 kts | 263° |
| 2026-05-06 12:54 | 48.34548 | 11.76386 | 1485 ft | 22 kts | 264° |
| 2026-05-06 12:55 | 48.34530 | 11.76138 | 1488 ft | 21 kts | 264° |
| 2026-05-06 12:55 | 48.34527 | 11.76087 | 1488 ft | 0 kts | 264° |
| 2026-05-06 12:55 | 48.34521 | 11.76004 | 1488 ft | 14 kts | 263° |
| 2026-05-06 12:55 | 48.34505 | 11.75801 | 1488 ft | 24 kts | 263° |
| 2026-05-06 12:56 | 48.34482 | 11.75506 | 1488 ft | 32 kts | 264° |
| 2026-05-06 12:56 | 48.34459 | 11.75187 | 1494 ft | 26 kts | 262° |
| 2026-05-06 12:56 | 48.34369 | 11.75070 | 1492 ft | 18 kts | 174° |
| 2026-05-06 12:56 | 48.34257 | 11.75090 | 1490 ft | 9 kts | 173° |
| 2026-05-06 12:57 | 48.34212 | 11.75098 | 1489 ft | 0 kts | 173° |
| 2026-05-06 12:57 | 48.34201 | 11.75100 | 1489 ft | 4 kts | 173° |
| 2026-05-06 12:57 | 48.34198 | 11.75100 | 1489 ft | 0 kts | 172° |
| 2026-05-06 12:58 | 48.34173 | 11.75111 | 1488 ft | 10 kts | 160° |
| 2026-05-06 12:58 | 48.34090 | 11.75240 | 1488 ft | 22 kts | 108° |
| 2026-05-06 12:58 | 48.34085 | 11.75329 | 1488 ft | 0 kts | 85° |
| 2026-05-06 12:58 | 48.34085 | 11.75330 | 1488 ft | 0 kts | 85° |
| 2026-05-06 12:59 | 48.34089 | 11.75405 | 1488 ft | 29 kts | 83° |
| 2026-05-06 12:59 | 48.34146 | 11.76105 | 1489 ft | 104 kts | 83° |
| 2026-05-06 12:59 | 48.34256 | 11.77518 | 1499 ft | 163 kts | 83° |
| 2026-05-06 12:59 | 48.34368 | 11.79303 | 2025 ft | 173 kts | 86° |
| 2026-05-06 13:00 | 48.34430 | 11.81096 | 2647 ft | 177 kts | 88° |
| 2026-05-06 13:00 | 48.34504 | 11.82962 | 3120 ft | 187 kts | 84° |
| 2026-05-06 13:00 | 48.34609 | 11.84969 | 3584 ft | 196 kts | 86° |
| 2026-05-06 13:00 | 48.34631 | 11.87038 | 4064 ft | 202 kts | 89° |
| 2026-05-06 13:01 | 48.34607 | 11.89165 | 4544 ft | 206 kts | 90° |
| 2026-05-06 13:01 | 48.34964 | 11.91159 | 5268 ft | 195 kts | 70° |
| 2026-05-06 13:01 | 48.35250 | 11.93053 | 6002 ft | 183 kts | 92° |
| 2026-05-06 13:01 | 48.34922 | 11.94785 | 6595 ft | 167 kts | 114° |
| 2026-05-06 13:02 | 48.34469 | 11.96411 | 6847 ft | 176 kts | 114° |
| 2026-05-06 13:02 | 48.33964 | 11.98186 | 7050 ft | 190 kts | 114° |
| 2026-05-06 13:02 | 48.33428 | 12.00036 | 7363 ft | 196 kts | 115° |
| 2026-05-06 13:02 | 48.32882 | 12.01906 | 7753 ft | 197 kts | 116° |
| 2026-05-06 13:03 | 48.32331 | 12.03784 | 8138 ft | 199 kts | 116° |
| 2026-05-06 13:03 | 48.31814 | 12.05711 | 8527 ft | 201 kts | 107° |
| 2026-05-06 13:03 | 48.31504 | 12.07786 | 8908 ft | 203 kts | 106° |
| 2026-05-06 13:03 | 48.31203 | 12.09833 | 9294 ft | 204 kts | 107° |
| 2026-05-06 13:04 | 48.30902 | 12.11939 | 9650 ft | 207 kts | 107° |
| 2026-05-06 13:04 | 48.30601 | 12.14058 | 10023 ft | 208 kts | 107° |
| 2026-05-06 13:04 | 48.30300 | 12.16173 | 10350 ft | 211 kts | 107° |
| 2026-05-06 13:04 | 48.29995 | 12.18332 | 10703 ft | 212 kts | 106° |
| 2026-05-06 13:05 | 48.29689 | 12.20489 | 11047 ft | 214 kts | 106° |
| 2026-05-06 13:05 | 48.29377 | 12.22690 | 11396 ft | 216 kts | 106° |
| 2026-05-06 13:05 | 48.29062 | 12.24904 | 11734 ft | 218 kts | 106° |
| 2026-05-06 13:05 | 48.28748 | 12.27116 | 12070 ft | 219 kts | 106° |
| 2026-05-06 13:06 | 48.28425 | 12.29374 | 12391 ft | 222 kts | 106° |
| 2026-05-06 13:06 | 48.28104 | 12.31631 | 12698 ft | 224 kts | 106° |
| 2026-05-06 13:06 | 48.27776 | 12.33924 | 13022 ft | 226 kts | 106° |
| 2026-05-06 13:06 | 48.27445 | 12.36240 | 13330 ft | 228 kts | 106° |
| 2026-05-06 13:07 | 48.27114 | 12.38546 | 13632 ft | 229 kts | 106° |
| 2026-05-06 13:07 | 48.26775 | 12.40913 | 13937 ft | 231 kts | 106° |
| 2026-05-06 13:07 | 48.26438 | 12.43249 | 14217 ft | 233 kts | 107° |
| 2026-05-06 13:07 | 48.26097 | 12.45631 | 14504 ft | 234 kts | 107° |
| 2026-05-06 13:08 | 48.25752 | 12.48015 | 14791 ft | 236 kts | 107° |
| 2026-05-06 13:08 | 48.25400 | 12.50449 | 15056 ft | 238 kts | 108° |
| 2026-05-06 13:08 | 48.25052 | 12.52861 | 15316 ft | 240 kts | 108° |
| 2026-05-06 13:08 | 48.24697 | 12.55298 | 15596 ft | 241 kts | 108° |
| 2026-05-06 13:09 | 48.24336 | 12.57788 | 15756 ft | 248 kts | 108° |
| 2026-05-06 13:09 | 48.23962 | 12.60348 | 15902 ft | 254 kts | 108° |
| 2026-05-06 13:09 | 48.23584 | 12.62943 | 16041 ft | 260 kts | 108° |
| 2026-05-06 13:09 | 48.23190 | 12.65642 | 16178 ft | 266 kts | 109° |
| 2026-05-06 13:10 | 48.22790 | 12.68371 | 16311 ft | 273 kts | 109° |
| 2026-05-06 13:10 | 48.22362 | 12.71272 | 16538 ft | 293 kts | 109° |
| 2026-05-06 13:10 | 48.21912 | 12.74340 | 16763 ft | 311 kts | 108° |
| 2026-05-06 13:10 | 48.21439 | 12.77557 | 16938 ft | 326 kts | 108° |
| 2026-05-06 13:11 | 48.20957 | 12.80852 | 17048 ft | 323 kts | 108° |
| 2026-05-06 13:11 | 48.20795 | 12.84211 | 17150 ft | 328 kts | 92° |
| 2026-05-06 13:11 | 48.20888 | 12.87622 | 17273 ft | 326 kts | 93° |
| 2026-05-06 13:11 | 48.20967 | 12.90955 | 17645 ft | 315 kts | 94° |
| 2026-05-06 13:12 | 48.21041 | 12.94149 | 18443 ft | 307 kts | 94° |
| 2026-05-06 13:12 | 48.21110 | 12.97337 | 19184 ft | 302 kts | 95° |
| 2026-05-06 13:12 | 48.21175 | 13.00441 | 19925 ft | 300 kts | 95° |
| 2026-05-06 13:12 | 48.21240 | 13.03556 | 20703 ft | 307 kts | 95° |
| 2026-05-06 13:13 | 48.21305 | 13.06738 | 21303 ft | 308 kts | 95° |
| 2026-05-06 13:13 | 48.21367 | 13.10021 | 21465 ft | 326 kts | 95° |
| 2026-05-06 13:13 | 48.21437 | 13.13487 | 21643 ft | 343 kts | 94° |
| 2026-05-06 13:13 | 48.21510 | 13.17165 | 21828 ft | 360 kts | 94° |
| 2026-05-06 13:14 | 48.21586 | 13.20983 | 22007 ft | 376 kts | 93° |
| 2026-05-06 13:14 | 48.21664 | 13.24984 | 22163 ft | 393 kts | 93° |
| 2026-05-06 13:14 | 48.21744 | 13.29110 | 22326 ft | 409 kts | 93° |
| 2026-05-06 13:14 | 48.21824 | 13.33455 | 22496 ft | 424 kts | 93° |
| 2026-05-06 13:15 | 48.21906 | 13.37918 | 22648 ft | 438 kts | 92° |
| 2026-05-06 13:15 | 48.21839 | 13.42489 | 22838 ft | 444 kts | 103° |
| 2026-05-06 13:15 | 48.20942 | 13.46896 | 23321 ft | 435 kts | 121° |
| 2026-05-06 13:15 | 48.19424 | 13.50705 | 24023 ft | 429 kts | 128° |
| 2026-05-06 13:16 | 48.17852 | 13.54466 | 24691 ft | 430 kts | 128° |
| 2026-05-06 13:16 | 48.16271 | 13.58239 | 25403 ft | 429 kts | 128° |
| 2026-05-06 13:16 | 48.14688 | 13.62008 | 26213 ft | 425 kts | 128° |
| 2026-05-06 13:16 | 48.13129 | 13.65714 | 26882 ft | 425 kts | 129° |
| 2026-05-06 13:17 | 48.11555 | 13.69446 | 27512 ft | 425 kts | 129° |
| 2026-05-06 13:17 | 48.09986 | 13.73169 | 28199 ft | 424 kts | 129° |
| 2026-05-06 13:17 | 48.08416 | 13.76885 | 28913 ft | 422 kts | 129° |
| 2026-05-06 13:17 | 48.06862 | 13.80558 | 29599 ft | 420 kts | 129° |
| 2026-05-06 13:18 | 48.05297 | 13.84255 | 30312 ft | 418 kts | 129° |
| 2026-05-06 13:18 | 48.03771 | 13.87852 | 30958 ft | 416 kts | 129° |
| 2026-05-06 13:18 | 48.02203 | 13.91546 | 31408 ft | 419 kts | 130° |
| 2026-05-06 13:18 | 48.00631 | 13.95242 | 31867 ft | 420 kts | 130° |
| 2026-05-06 13:19 | 47.99097 | 13.98845 | 32352 ft | 420 kts | 130° |
| 2026-05-06 13:19 | 47.97508 | 14.02570 | 32815 ft | 421 kts | 131° |
| 2026-05-06 13:19 | 47.95932 | 14.06257 | 33172 ft | 424 kts | 131° |
| 2026-05-06 13:19 | 47.94352 | 14.09957 | 33628 ft | 424 kts | 131° |
| 2026-05-06 13:20 | 47.92777 | 14.13629 | 34073 ft | 424 kts | 131° |
| 2026-05-06 13:20 | 47.91179 | 14.17360 | 34448 ft | 426 kts | 131° |
| 2026-05-06 13:20 | 47.89572 | 14.21100 | 34835 ft | 427 kts | 131° |
| 2026-05-06 13:20 | 47.87978 | 14.24802 | 35238 ft | 426 kts | 131° |
| 2026-05-06 13:21 | 47.86375 | 14.28525 | 35732 ft | 423 kts | 130° |
| 2026-05-06 13:21 | 47.84802 | 14.32175 | 36102 ft | 423 kts | 130° |
| 2026-05-06 13:21 | 47.83225 | 14.35824 | 36493 ft | 422 kts | 130° |
| 2026-05-06 13:21 | 47.81625 | 14.39524 | 36776 ft | 425 kts | 130° |
| 2026-05-06 13:22 | 47.80019 | 14.43232 | 36958 ft | 431 kts | 130° |
| 2026-05-06 13:22 | 47.78410 | 14.46944 | 37272 ft | 433 kts | 129° |
| 2026-05-06 13:22 | 47.76777 | 14.50711 | 37575 ft | 434 kts | 129° |
| 2026-05-06 13:22 | 47.75147 | 14.54464 | 37850 ft | 436 kts | 129° |
| 2026-05-06 13:23 | 47.73492 | 14.58262 | 38099 ft | 439 kts | 129° |
| 2026-05-06 13:23 | 47.71822 | 14.62096 | 38353 ft | 441 kts | 128° |
| 2026-05-06 13:23 | 47.70170 | 14.65876 | 38536 ft | 444 kts | 129° |
| 2026-05-06 13:23 | 47.68460 | 14.69793 | 38689 ft | 448 kts | 129° |
| 2026-05-06 13:24 | 47.66772 | 14.73648 | 38822 ft | 452 kts | 129° |
| 2026-05-06 13:24 | 47.65049 | 14.77581 | 38960 ft | 455 kts | 129° |
| 2026-05-06 13:24 | 47.63327 | 14.81504 | 39107 ft | 458 kts | 128° |
| 2026-05-06 13:24 | 47.61581 | 14.85473 | 39269 ft | 461 kts | 128° |
| 2026-05-06 13:25 | 47.59827 | 14.89460 | 39406 ft | 462 kts | 128° |
| 2026-05-06 13:25 | 47.58069 | 14.93450 | 39559 ft | 464 kts | 128° |
| 2026-05-06 13:25 | 47.56308 | 14.97436 | 39724 ft | 466 kts | 128° |
| 2026-05-06 13:25 | 47.54533 | 15.01449 | 39892 ft | 470 kts | 128° |
| 2026-05-06 13:26 | 47.52716 | 15.05550 | 40003 ft | 475 kts | 128° |
| 2026-05-06 13:26 | 47.50925 | 15.09592 | 40194 ft | 474 kts | 128° |
| 2026-05-06 13:26 | 47.49118 | 15.13662 | 40317 ft | 473 kts | 128° |
| 2026-05-06 13:26 | 47.47307 | 15.17733 | 40430 ft | 473 kts | 128° |
| 2026-05-06 13:27 | 47.45511 | 15.21764 | 40547 ft | 473 kts | 128° |
| 2026-05-06 13:27 | 47.43719 | 15.25782 | 40660 ft | 472 kts | 128° |
| 2026-05-06 13:27 | 47.41892 | 15.29867 | 40778 ft | 472 kts | 127° |
| 2026-05-06 13:28 | 47.38285 | 15.37923 | 40843 ft | 475 kts | 127° |
| 2026-05-06 13:28 | 47.34630 | 15.46061 | 40849 ft | 479 kts | 127° |
| 2026-05-06 13:29 | 47.30939 | 15.54260 | 40855 ft | 482 kts | 127° |
| 2026-05-06 13:29 | 47.27229 | 15.62471 | 40845 ft | 481 kts | 127° |
| 2026-05-06 13:30 | 47.23558 | 15.70574 | 40856 ft | 475 kts | 128° |
| 2026-05-06 13:30 | 47.19897 | 15.78629 | 40837 ft | 474 kts | 128° |
| 2026-05-06 13:31 | 47.16240 | 15.86648 | 40855 ft | 475 kts | 127° |
| 2026-05-06 13:31 | 47.12560 | 15.94699 | 40841 ft | 474 kts | 128° |
| 2026-05-06 13:32 | 47.08913 | 16.02654 | 40866 ft | 474 kts | 127° |
| 2026-05-06 13:32 | 47.05235 | 16.10658 | 40846 ft | 474 kts | 127° |
| 2026-05-06 13:33 | 47.01537 | 16.18679 | 40845 ft | 476 kts | 128° |
| 2026-05-06 13:33 | 46.99822 | 16.22800 | 40837 ft | 479 kts | 117° |
| 2026-05-06 13:33 | 46.98731 | 16.27387 | 40895 ft | 483 kts | 109° |
| 2026-05-06 13:34 | 46.96730 | 16.36825 | 40876 ft | 487 kts | 110° |
| 2026-05-06 13:34 | 46.94708 | 16.46257 | 40868 ft | 486 kts | 110° |
| 2026-05-06 13:35 | 46.92696 | 16.55619 | 40863 ft | 487 kts | 110° |
| 2026-05-06 13:35 | 46.90661 | 16.65028 | 40882 ft | 488 kts | 111° |
| 2026-05-06 13:36 | 46.88601 | 16.74519 | 40891 ft | 489 kts | 111° |
| 2026-05-06 13:36 | 46.86297 | 16.83822 | 40859 ft | 483 kts | 124° |
| 2026-05-06 13:37 | 46.82681 | 16.92035 | 40893 ft | 484 kts | 127° |
| 2026-05-06 13:37 | 46.79086 | 17.00349 | 40892 ft | 483 kts | 127° |
| 2026-05-06 13:38 | 46.75536 | 17.08569 | 40882 ft | 484 kts | 126° |
| 2026-05-06 13:38 | 46.71937 | 17.16884 | 40892 ft | 484 kts | 127° |
| 2026-05-06 13:39 | 46.68348 | 17.25149 | 40888 ft | 485 kts | 126° |
| 2026-05-06 13:39 | 46.64733 | 17.33450 | 40890 ft | 485 kts | 126° |
| 2026-05-06 13:40 | 46.61137 | 17.41681 | 40893 ft | 486 kts | 126° |
| 2026-05-06 13:40 | 46.57457 | 17.50081 | 40887 ft | 490 kts | 126° |
| 2026-05-06 13:41 | 46.53782 | 17.58447 | 40896 ft | 493 kts | 126° |
| 2026-05-06 13:41 | 46.50066 | 17.66873 | 40891 ft | 492 kts | 127° |
| 2026-05-06 13:42 | 46.46369 | 17.75238 | 40897 ft | 486 kts | 127° |
| 2026-05-06 13:42 | 46.42707 | 17.83491 | 40906 ft | 488 kts | 127° |
| 2026-05-06 13:43 | 46.39011 | 17.91801 | 40900 ft | 491 kts | 127° |
| 2026-05-06 13:43 | 46.35287 | 18.00149 | 40914 ft | 494 kts | 127° |
| 2026-05-06 13:44 | 46.31533 | 18.08542 | 40915 ft | 495 kts | 127° |
| 2026-05-06 13:44 | 46.27764 | 18.16936 | 40916 ft | 494 kts | 126° |
| 2026-05-06 13:45 | 46.24013 | 18.25274 | 40919 ft | 488 kts | 126° |
| 2026-05-06 13:45 | 46.18436 | 18.37614 | 40929 ft | 490 kts | 126° |
| 2026-05-06 13:46 | 46.14673 | 18.45915 | 40935 ft | 490 kts | 126° |
| 2026-05-06 13:46 | 46.10952 | 18.54097 | 40919 ft | 489 kts | 126° |
| 2026-05-06 13:47 | 46.07212 | 18.62295 | 40926 ft | 489 kts | 126° |
| 2026-05-06 13:47 | 46.03450 | 18.70520 | 40917 ft | 489 kts | 127° |
| 2026-05-06 13:48 | 45.99688 | 18.78719 | 40917 ft | 489 kts | 127° |
| 2026-05-06 13:48 | 45.95930 | 18.86884 | 40919 ft | 489 kts | 127° |
| 2026-05-06 13:49 | 45.92005 | 18.94944 | 40916 ft | 484 kts | 134° |
| 2026-05-06 13:49 | 45.87546 | 19.02279 | 40917 ft | 485 kts | 134° |
| 2026-05-06 13:50 | 45.83134 | 19.09618 | 40915 ft | 486 kts | 134° |
| 2026-05-06 13:50 | 45.78715 | 19.16962 | 40912 ft | 485 kts | 134° |
| 2026-05-06 13:51 | 45.74265 | 19.24333 | 40925 ft | 486 kts | 134° |
| 2026-05-06 13:51 | 45.69831 | 19.31663 | 40927 ft | 486 kts | 134° |
| 2026-05-06 13:52 | 45.65384 | 19.38991 | 40928 ft | 485 kts | 134° |
| 2026-05-06 13:52 | 45.60933 | 19.46308 | 40924 ft | 487 kts | 134° |
| 2026-05-06 13:53 | 45.56470 | 19.53625 | 40931 ft | 487 kts | 134° |
| 2026-05-06 13:53 | 45.52039 | 19.60873 | 40941 ft | 487 kts | 134° |
| 2026-05-06 13:54 | 45.47533 | 19.68223 | 40936 ft | 487 kts | 135° |
| 2026-05-06 13:54 | 45.43060 | 19.75498 | 40926 ft | 486 kts | 135° |
| 2026-05-06 13:55 | 45.38585 | 19.82759 | 40940 ft | 487 kts | 135° |
| 2026-05-06 13:55 | 45.34136 | 19.89957 | 40938 ft | 488 kts | 135° |
| 2026-05-06 13:56 | 45.29543 | 19.97032 | 40939 ft | 485 kts | 139° |
| 2026-05-06 13:56 | 45.24716 | 20.03867 | 40945 ft | 486 kts | 139° |
| 2026-05-06 13:57 | 45.19933 | 20.10678 | 40953 ft | 486 kts | 138° |
| 2026-05-06 13:57 | 45.15149 | 20.17475 | 40957 ft | 487 kts | 138° |
| 2026-05-06 13:58 | 45.10325 | 20.24316 | 40954 ft | 486 kts | 138° |
| 2026-05-06 13:58 | 45.05505 | 20.31132 | 40956 ft | 487 kts | 138° |
| 2026-05-06 13:59 | 45.00697 | 20.37913 | 40960 ft | 488 kts | 138° |
| 2026-05-06 13:59 | 44.95838 | 20.44750 | 40959 ft | 488 kts | 138° |
| 2026-05-06 14:00 | 44.91027 | 20.51500 | 40973 ft | 487 kts | 138° |
| 2026-05-06 14:00 | 44.86177 | 20.58293 | 40966 ft | 488 kts | 138° |
| 2026-05-06 14:01 | 44.81340 | 20.65046 | 40966 ft | 488 kts | 138° |
| 2026-05-06 14:01 | 44.76479 | 20.71816 | 40959 ft | 487 kts | 138° |
| 2026-05-06 14:02 | 44.71669 | 20.78534 | 40952 ft | 489 kts | 136° |
| 2026-05-06 14:02 | 44.67202 | 20.85891 | 40959 ft | 489 kts | 133° |
| 2026-05-06 14:03 | 44.62736 | 20.93158 | 40961 ft | 490 kts | 133° |
| 2026-05-06 14:03 | 44.58237 | 21.00441 | 40970 ft | 490 kts | 133° |
| 2026-05-06 14:04 | 44.53746 | 21.07692 | 40972 ft | 490 kts | 133° |
| 2026-05-06 14:04 | 44.49264 | 21.14906 | 40962 ft | 489 kts | 133° |
| 2026-05-06 14:05 | 44.44751 | 21.22152 | 40980 ft | 490 kts | 133° |
| 2026-05-06 14:05 | 44.40248 | 21.29367 | 40966 ft | 489 kts | 133° |
| 2026-05-06 14:06 | 44.35756 | 21.36544 | 40981 ft | 489 kts | 133° |
| 2026-05-06 14:06 | 44.31240 | 21.43744 | 40993 ft | 489 kts | 133° |
| 2026-05-06 14:07 | 44.26704 | 21.50954 | 41001 ft | 489 kts | 133° |
| 2026-05-06 14:07 | 44.22200 | 21.58098 | 41000 ft | 489 kts | 133° |
| 2026-05-06 14:08 | 44.17686 | 21.65235 | 41006 ft | 488 kts | 133° |
| 2026-05-06 14:08 | 44.13145 | 21.72401 | 41015 ft | 489 kts | 133° |
| 2026-05-06 14:09 | 44.08594 | 21.79562 | 41034 ft | 489 kts | 133° |
| 2026-05-06 14:09 | 44.04063 | 21.86674 | 41029 ft | 488 kts | 133° |
| 2026-05-06 14:10 | 43.99520 | 21.93791 | 41025 ft | 489 kts | 133° |
| 2026-05-06 14:10 | 43.94950 | 22.00928 | 41019 ft | 489 kts | 133° |
| 2026-05-06 14:11 | 43.90408 | 22.08005 | 41018 ft | 489 kts | 133° |
| 2026-05-06 14:11 | 43.85855 | 22.15082 | 41012 ft | 489 kts | 133° |
| 2026-05-06 14:12 | 43.81287 | 22.22163 | 41016 ft | 491 kts | 133° |
| 2026-05-06 14:12 | 43.76708 | 22.29244 | 41015 ft | 491 kts | 133° |
| 2026-05-06 14:13 | 43.72131 | 22.36306 | 41022 ft | 491 kts | 133° |
| 2026-05-06 14:13 | 43.67757 | 22.43596 | 41011 ft | 491 kts | 119° |
| 2026-05-06 14:14 | 43.64751 | 22.52175 | 41036 ft | 494 kts | 115° |
| 2026-05-06 14:14 | 43.61668 | 22.60642 | 41031 ft | 493 kts | 116° |
| 2026-05-06 14:15 | 43.58536 | 22.69158 | 41025 ft | 493 kts | 116° |
| 2026-05-06 14:15 | 43.55410 | 22.77626 | 41020 ft | 493 kts | 116° |
| 2026-05-06 14:16 | 43.52297 | 22.86037 | 41030 ft | 493 kts | 116° |
| 2026-05-06 14:16 | 43.49149 | 22.94509 | 41030 ft | 493 kts | 116° |
| 2026-05-06 14:17 | 43.46020 | 23.02914 | 41027 ft | 492 kts | 116° |
| 2026-05-06 14:17 | 43.42865 | 23.11358 | 41028 ft | 493 kts | 116° |
| 2026-05-06 14:18 | 43.39724 | 23.19741 | 41025 ft | 494 kts | 116° |
| 2026-05-06 14:18 | 43.36557 | 23.28166 | 41014 ft | 494 kts | 116° |
| 2026-05-06 14:19 | 43.33376 | 23.36604 | 41011 ft | 494 kts | 116° |
| 2026-05-06 14:19 | 43.30199 | 23.45009 | 41013 ft | 494 kts | 116° |
| 2026-05-06 14:20 | 43.27000 | 23.53439 | 41010 ft | 494 kts | 115° |
| 2026-05-06 14:20 | 43.23814 | 23.61820 | 41008 ft | 494 kts | 115° |
| 2026-05-06 14:21 | 43.20592 | 23.70265 | 41018 ft | 495 kts | 116° |
| 2026-05-06 14:21 | 43.17382 | 23.78654 | 41017 ft | 495 kts | 116° |
| 2026-05-06 14:22 | 43.14172 | 23.87019 | 41015 ft | 496 kts | 116° |
| 2026-05-06 14:22 | 43.10940 | 23.95416 | 41022 ft | 497 kts | 116° |
| 2026-05-06 14:23 | 43.07697 | 24.03816 | 41021 ft | 496 kts | 116° |
| 2026-05-06 14:23 | 43.04451 | 24.12200 | 41028 ft | 497 kts | 116° |
| 2026-05-06 14:24 | 43.01193 | 24.20591 | 41021 ft | 497 kts | 116° |
| 2026-05-06 14:24 | 42.97921 | 24.28993 | 41042 ft | 496 kts | 115° |
| 2026-05-06 14:25 | 42.94659 | 24.37343 | 41038 ft | 498 kts | 115° |
| 2026-05-06 14:25 | 42.91381 | 24.45710 | 41049 ft | 498 kts | 115° |
| 2026-05-06 14:26 | 42.88078 | 24.54118 | 41047 ft | 498 kts | 116° |
| 2026-05-06 14:26 | 42.84782 | 24.62483 | 41048 ft | 498 kts | 115° |
| 2026-05-06 14:27 | 42.81471 | 24.70863 | 41064 ft | 498 kts | 116° |
| 2026-05-06 14:27 | 42.78166 | 24.79204 | 41070 ft | 499 kts | 116° |
| 2026-05-06 14:28 | 42.74836 | 24.87586 | 41077 ft | 500 kts | 116° |
| 2026-05-06 14:28 | 42.71515 | 24.95918 | 41071 ft | 499 kts | 116° |
| 2026-05-06 14:29 | 42.68171 | 25.04287 | 41079 ft | 501 kts | 116° |
| 2026-05-06 14:29 | 42.64843 | 25.12588 | 41076 ft | 499 kts | 116° |
| 2026-05-06 14:30 | 42.61490 | 25.20931 | 41061 ft | 498 kts | 116° |
| 2026-05-06 14:30 | 42.58140 | 25.29243 | 41050 ft | 499 kts | 116° |
| 2026-05-06 14:31 | 42.54803 | 25.37496 | 41069 ft | 498 kts | 116° |
| 2026-05-06 14:31 | 42.51439 | 25.45795 | 41024 ft | 498 kts | 116° |
| 2026-05-06 14:32 | 42.48078 | 25.54059 | 41027 ft | 498 kts | 116° |
| 2026-05-06 14:32 | 42.44711 | 25.62318 | 41021 ft | 498 kts | 116° |
| 2026-05-06 14:33 | 42.41473 | 25.70239 | 41003 ft | 497 kts | 117° |
| 2026-05-06 14:33 | 42.38039 | 25.78614 | 41005 ft | 497 kts | 117° |
| 2026-05-06 14:34 | 42.34672 | 25.86804 | 41015 ft | 496 kts | 117° |
| 2026-05-06 14:34 | 42.31288 | 25.95008 | 40994 ft | 497 kts | 117° |
| 2026-05-06 14:35 | 42.27913 | 26.03173 | 41009 ft | 496 kts | 117° |
| 2026-05-06 14:35 | 42.24524 | 26.11344 | 41014 ft | 496 kts | 117° |
| 2026-05-06 14:36 | 42.21184 | 26.19373 | 41014 ft | 486 kts | 117° |
| 2026-05-06 14:36 | 42.19505 | 26.23404 | 40421 ft | 492 kts | 117° |
| 2026-05-06 14:36 | 42.17810 | 26.27464 | 39334 ft | 501 kts | 117° |
| 2026-05-06 14:37 | 42.16082 | 26.31598 | 38685 ft | 497 kts | 117° |
| 2026-05-06 14:37 | 42.14380 | 26.35668 | 37890 ft | 497 kts | 116° |
| 2026-05-06 14:37 | 42.12665 | 26.39759 | 37142 ft | 496 kts | 116° |
| 2026-05-06 14:37 | 42.10970 | 26.43798 | 36440 ft | 495 kts | 116° |
| 2026-05-06 14:38 | 42.09273 | 26.47839 | 35856 ft | 495 kts | 116° |
| 2026-05-06 14:38 | 42.07551 | 26.51932 | 35245 ft | 496 kts | 116° |
| 2026-05-06 14:38 | 42.05846 | 26.55978 | 34657 ft | 497 kts | 116° |
| 2026-05-06 14:38 | 42.04145 | 26.60011 | 34021 ft | 497 kts | 116° |
| 2026-05-06 14:39 | 42.02416 | 26.64106 | 33335 ft | 498 kts | 116° |
| 2026-05-06 14:39 | 42.00696 | 26.68172 | 32569 ft | 500 kts | 117° |
| 2026-05-06 14:39 | 41.98943 | 26.72219 | 31707 ft | 504 kts | 118° |
| 2026-05-06 14:39 | 41.96925 | 26.76129 | 30401 ft | 514 kts | 126° |
| 2026-05-06 14:40 | 41.94745 | 26.79860 | 29256 ft | 503 kts | 126° |
| 2026-05-06 14:40 | 41.92596 | 26.83482 | 28836 ft | 494 kts | 126° |
| 2026-05-06 14:40 | 41.90431 | 26.87116 | 28044 ft | 494 kts | 126° |
| 2026-05-06 14:40 | 41.88297 | 26.90686 | 27358 ft | 491 kts | 127° |
| 2026-05-06 14:41 | 41.86168 | 26.94244 | 26730 ft | 487 kts | 127° |
| 2026-05-06 14:41 | 41.84071 | 26.97740 | 26536 ft | 470 kts | 126° |
| 2026-05-06 14:41 | 41.82078 | 27.01059 | 26569 ft | 451 kts | 126° |
| 2026-05-06 14:41 | 41.80151 | 27.04268 | 26543 ft | 434 kts | 126° |
| 2026-05-06 14:42 | 41.78285 | 27.07369 | 26503 ft | 419 kts | 126° |
| 2026-05-06 14:42 | 41.76495 | 27.10345 | 26467 ft | 404 kts | 126° |
| 2026-05-06 14:42 | 41.74762 | 27.13220 | 26245 ft | 390 kts | 126° |
| 2026-05-06 14:42 | 41.73063 | 27.16039 | 25270 ft | 388 kts | 126° |
| 2026-05-06 14:43 | 41.71382 | 27.18826 | 24343 ft | 384 kts | 126° |
| 2026-05-06 14:43 | 41.69735 | 27.21551 | 23518 ft | 380 kts | 126° |
| 2026-05-06 14:43 | 41.68082 | 27.24285 | 23172 ft | 375 kts | 126° |
| 2026-05-06 14:43 | 41.66476 | 27.26937 | 22413 ft | 368 kts | 126° |
| 2026-05-06 14:44 | 41.64884 | 27.29565 | 21524 ft | 365 kts | 126° |
| 2026-05-06 14:44 | 41.63303 | 27.32174 | 20722 ft | 357 kts | 126° |
| 2026-05-06 14:44 | 41.61811 | 27.34737 | 19907 ft | 349 kts | 117° |
| 2026-05-06 14:45 | 41.60023 | 27.40554 | 18251 ft | 334 kts | 106° |
| 2026-05-06 14:45 | 41.59233 | 27.43427 | 17467 ft | 329 kts | 105° |
| 2026-05-06 14:45 | 41.58447 | 27.46263 | 16663 ft | 325 kts | 106° |
| 2026-05-06 14:45 | 41.57676 | 27.49051 | 15872 ft | 320 kts | 105° |
| 2026-05-06 14:46 | 41.56908 | 27.51816 | 15093 ft | 316 kts | 106° |
| 2026-05-06 14:46 | 41.56157 | 27.54510 | 14317 ft | 312 kts | 106° |
| 2026-05-06 14:46 | 41.55400 | 27.57237 | 13841 ft | 311 kts | 106° |
| 2026-05-06 14:46 | 41.54657 | 27.59906 | 13565 ft | 306 kts | 106° |
| 2026-05-06 14:47 | 41.53919 | 27.62561 | 13208 ft | 305 kts | 106° |
| 2026-05-06 14:47 | 41.53185 | 27.65197 | 12844 ft | 304 kts | 107° |
| 2026-05-06 14:47 | 41.52394 | 27.67794 | 12485 ft | 306 kts | 116° |
| 2026-05-06 14:47 | 41.51020 | 27.69986 | 12130 ft | 309 kts | 132° |
| 2026-05-06 14:48 | 41.49513 | 27.71997 | 11781 ft | 307 kts | 132° |
| 2026-05-06 14:48 | 41.48002 | 27.73988 | 11446 ft | 305 kts | 132° |
| 2026-05-06 14:48 | 41.46485 | 27.75970 | 11105 ft | 304 kts | 133° |
| 2026-05-06 14:48 | 41.44975 | 27.77931 | 10784 ft | 303 kts | 133° |
| 2026-05-06 14:49 | 41.43477 | 27.79874 | 10463 ft | 301 kts | 133° |
| 2026-05-06 14:49 | 41.41995 | 27.81790 | 10314 ft | 293 kts | 133° |
| 2026-05-06 14:49 | 41.40546 | 27.83662 | 10207 ft | 284 kts | 133° |
| 2026-05-06 14:49 | 41.39171 | 27.85438 | 10140 ft | 275 kts | 132° |
| 2026-05-06 14:50 | 41.37787 | 27.87226 | 10081 ft | 273 kts | 133° |
| 2026-05-06 14:50 | 41.36437 | 27.88969 | 10049 ft | 273 kts | 133° |
| 2026-05-06 14:50 | 41.35064 | 27.90739 | 10036 ft | 273 kts | 132° |
| 2026-05-06 14:50 | 41.33700 | 27.92496 | 10023 ft | 274 kts | 132° |
| 2026-05-06 14:51 | 41.32332 | 27.94259 | 10014 ft | 273 kts | 132° |
| 2026-05-06 14:51 | 41.30964 | 27.96019 | 10011 ft | 272 kts | 133° |
| 2026-05-06 14:51 | 41.29609 | 27.97760 | 10008 ft | 272 kts | 133° |
| 2026-05-06 14:51 | 41.28245 | 27.99513 | 10011 ft | 272 kts | 133° |
| 2026-05-06 14:52 | 41.26882 | 28.01264 | 10000 ft | 272 kts | 133° |
| 2026-05-06 14:52 | 41.25504 | 28.03032 | 9833 ft | 278 kts | 133° |
| 2026-05-06 14:52 | 41.24108 | 28.04823 | 9523 ft | 279 kts | 133° |
| 2026-05-06 14:52 | 41.22717 | 28.06605 | 9235 ft | 277 kts | 133° |
| 2026-05-06 14:53 | 41.21344 | 28.08364 | 8974 ft | 276 kts | 133° |
| 2026-05-06 14:53 | 41.19966 | 28.10128 | 8724 ft | 275 kts | 133° |
| 2026-05-06 14:53 | 41.18583 | 28.11899 | 8465 ft | 273 kts | 132° |
| 2026-05-06 14:53 | 41.17236 | 28.13623 | 8218 ft | 271 kts | 132° |
| 2026-05-06 14:54 | 41.15881 | 28.15357 | 7959 ft | 270 kts | 132° |
| 2026-05-06 14:54 | 41.14531 | 28.17081 | 7717 ft | 268 kts | 132° |
| 2026-05-06 14:54 | 41.13189 | 28.18794 | 7490 ft | 267 kts | 132° |
| 2026-05-06 14:54 | 41.11856 | 28.20494 | 7244 ft | 266 kts | 132° |
| 2026-05-06 14:55 | 41.10522 | 28.22196 | 7002 ft | 265 kts | 132° |
| 2026-05-06 14:55 | 41.09197 | 28.23884 | 6762 ft | 264 kts | 131° |
| 2026-05-06 14:55 | 41.07881 | 28.25561 | 6515 ft | 263 kts | 132° |
| 2026-05-06 14:55 | 41.06547 | 28.27258 | 6270 ft | 263 kts | 132° |
| 2026-05-06 14:56 | 41.05234 | 28.28928 | 6011 ft | 262 kts | 132° |
| 2026-05-06 14:56 | 41.03934 | 28.30581 | 5764 ft | 262 kts | 132° |
| 2026-05-06 14:56 | 41.02610 | 28.32265 | 5498 ft | 262 kts | 133° |
| 2026-05-06 14:56 | 41.01299 | 28.33930 | 5237 ft | 262 kts | 133° |
| 2026-05-06 14:57 | 41.00007 | 28.35568 | 5110 ft | 255 kts | 133° |
| 2026-05-06 14:57 | 40.98727 | 28.37188 | 5033 ft | 247 kts | 133° |
| 2026-05-06 14:57 | 40.97539 | 28.38783 | 4984 ft | 246 kts | 123° |
| 2026-05-06 14:57 | 40.96680 | 28.40708 | 5009 ft | 245 kts | 115° |
| 2026-05-06 14:58 | 40.95846 | 28.42654 | 4991 ft | 244 kts | 116° |
| 2026-05-06 14:58 | 40.95005 | 28.44608 | 4988 ft | 242 kts | 116° |
| 2026-05-06 14:58 | 40.94161 | 28.46567 | 4992 ft | 242 kts | 116° |
| 2026-05-06 14:58 | 40.93324 | 28.48507 | 4991 ft | 242 kts | 116° |
| 2026-05-06 14:59 | 40.92493 | 28.50431 | 4993 ft | 243 kts | 117° |
| 2026-05-06 14:59 | 40.91644 | 28.52395 | 4997 ft | 244 kts | 117° |
| 2026-05-06 14:59 | 40.90813 | 28.54317 | 4975 ft | 245 kts | 116° |
| 2026-05-06 14:59 | 40.89974 | 28.56258 | 4961 ft | 243 kts | 117° |
| 2026-05-06 15:00 | 40.89342 | 28.58320 | 4950 ft | 238 kts | 93° |
| 2026-05-06 15:00 | 40.89534 | 28.60424 | 4980 ft | 232 kts | 67° |
| 2026-05-06 15:00 | 40.90075 | 28.62440 | 4999 ft | 232 kts | 68° |
| 2026-05-06 15:00 | 40.90605 | 28.64492 | 4994 ft | 232 kts | 68° |
| 2026-05-06 15:01 | 40.91128 | 28.66514 | 4994 ft | 232 kts | 69° |
| 2026-05-06 15:01 | 40.91727 | 28.68490 | 4984 ft | 230 kts | 54° |
| 2026-05-06 15:01 | 40.92888 | 28.69876 | 5008 ft | 226 kts | 27° |
| 2026-05-06 15:01 | 40.94281 | 28.70876 | 5007 ft | 227 kts | 27° |
| 2026-05-06 15:02 | 40.95647 | 28.71883 | 4988 ft | 222 kts | 27° |
| 2026-05-06 15:02 | 40.96974 | 28.72859 | 4982 ft | 211 kts | 26° |
| 2026-05-06 15:02 | 40.98325 | 28.73313 | 4990 ft | 203 kts | 359° |
| 2026-05-06 15:02 | 40.99770 | 28.73275 | 5022 ft | 208 kts | 359° |
| 2026-05-06 15:03 | 41.01203 | 28.73258 | 4998 ft | 207 kts | 359° |
| 2026-05-06 15:03 | 41.02642 | 28.73097 | 4993 ft | 206 kts | 354° |
| 2026-05-06 15:03 | 41.04087 | 28.73165 | 5010 ft | 206 kts | 1° |
| 2026-05-06 15:03 | 41.05512 | 28.73169 | 4994 ft | 206 kts | 359° |
| 2026-05-06 15:04 | 41.06966 | 28.73158 | 5000 ft | 207 kts | 359° |
| 2026-05-06 15:04 | 41.08425 | 28.73132 | 4733 ft | 215 kts | 359° |
| 2026-05-06 15:04 | 41.09943 | 28.73103 | 4329 ft | 223 kts | 359° |
| 2026-05-06 15:04 | 41.11509 | 28.73072 | 3955 ft | 230 kts | 359° |
| 2026-05-06 15:05 | 41.13137 | 28.73039 | 3597 ft | 232 kts | 359° |
| 2026-05-06 15:05 | 41.14685 | 28.73009 | 3496 ft | 217 kts | 359° |
| 2026-05-06 15:05 | 41.16145 | 28.72982 | 3212 ft | 200 kts | 359° |
| 2026-05-06 15:05 | 41.17469 | 28.72955 | 2775 ft | 178 kts | 359° |
| 2026-05-06 15:06 | 41.18598 | 28.72931 | 2508 ft | 155 kts | 359° |
| 2026-05-06 15:06 | 41.19653 | 28.72910 | 2154 ft | 151 kts | 359° |
| 2026-05-06 15:06 | 41.20670 | 28.72888 | 1804 ft | 139 kts | 360° |
| 2026-05-06 15:06 | 41.21606 | 28.72869 | 1446 ft | 133 kts | 0° |
| 2026-05-06 15:07 | 41.22527 | 28.72850 | 1120 ft | 132 kts | 1° |
| 2026-05-06 15:07 | 41.23439 | 28.72834 | 926 ft | 131 kts | 1° |
| 2026-05-06 15:07 | 41.24356 | 28.72822 | 730 ft | 131 kts | 2° |
| 2026-05-06 15:07 | 41.25261 | 28.72807 | 567 ft | 134 kts | 1° |
| 2026-05-06 15:08 | 41.26174 | 28.72771 | 387 ft | 132 kts | 3° |
| 2026-05-06 15:08 | 41.27079 | 28.72749 | 340 ft | 122 kts | 2° |
| 2026-05-06 15:08 | 41.27850 | 28.72748 | 338 ft | 92 kts | 359° |
| 2026-05-06 15:08 | 41.28338 | 28.72735 | 338 ft | 52 kts | 0° |
| 2026-05-06 15:09 | 41.28484 | 28.72735 | 338 ft | 0 kts | 359° |
| 2026-05-06 15:09 | 41.28487 | 28.72735 | 338 ft | 2 kts | 0° |
| 2026-05-06 15:09 | 41.28583 | 28.72776 | 338 ft | 24 kts | 27° |
| 2026-05-06 15:09 | 41.28752 | 28.72900 | 338 ft | 31 kts | 27° |
| 2026-05-06 15:10 | 41.28989 | 28.72947 | 338 ft | 38 kts | 360° |
| 2026-05-06 15:10 | 41.29278 | 28.72944 | 338 ft | 43 kts | 0° |
| 2026-05-06 15:10 | 41.29428 | 28.72942 | 338 ft | 2 kts | 357° |
| 2026-05-06 15:10 | 41.29440 | 28.72941 | 338 ft | 0 kts | 357° |
| 2026-05-06 15:11 | 41.29475 | 28.72939 | 338 ft | 15 kts | 358° |
| 2026-05-06 15:11 | 41.29635 | 28.72936 | 338 ft | 20 kts | 5° |
| 2026-05-06 15:11 | 41.29735 | 28.73038 | 338 ft | 21 kts | 16° |
| 2026-05-06 15:11 | 41.29851 | 28.73033 | 338 ft | 0 kts | 324° |
| 2026-05-06 15:12 | 41.29854 | 28.73030 | 338 ft | 0 kts | 323° |
| 2026-05-06 15:12 | 41.29858 | 28.73024 | 338 ft | 3 kts | 314° |
| 2026-05-06 15:12 | 41.29853 | 28.72952 | 338 ft | 13 kts | 224° |
| 2026-05-06 15:13 | 41.29822 | 28.72923 | 338 ft | 0 kts | 217° |
| 2026-05-06 15:13 | 41.29820 | 28.72922 | 338 ft | 2 kts | 213° |
| 2026-05-06 15:13 | 41.29765 | 28.72914 | 338 ft | 13 kts | 178° |
| 2026-05-06 15:13 | 41.29634 | 28.72932 | 338 ft | 23 kts | 180° |
| 2026-05-06 15:14 | 41.29458 | 28.72937 | 338 ft | 26 kts | 178° |
| 2026-05-06 15:14 | 41.29257 | 28.72944 | 338 ft | 31 kts | 179° |
| 2026-05-06 15:14 | 41.29060 | 28.72947 | 338 ft | 28 kts | 179° |
| 2026-05-06 15:14 | 41.28842 | 28.72951 | 338 ft | 33 kts | 179° |
| 2026-05-06 15:15 | 41.28593 | 28.72957 | 338 ft | 38 kts | 179° |
| 2026-05-06 15:15 | 41.28307 | 28.72963 | 338 ft | 43 kts | 178° |
| 2026-05-06 15:15 | 41.27998 | 28.72970 | 338 ft | 38 kts | 179° |
| 2026-05-06 15:15 | 41.27945 | 28.72971 | 338 ft | 6 kts | 180° |
| 2026-05-06 15:16 | 41.27860 | 28.72971 | 338 ft | 14 kts | 180° |
| 2026-05-06 15:16 | 41.27745 | 28.72971 | 338 ft | 18 kts | 179° |
| 2026-05-06 15:16 | 41.27607 | 28.72975 | 338 ft | 13 kts | 179° |
| 2026-05-06 15:16 | 41.27598 | 28.72975 | 338 ft | 1 kts | 179° |
| 2026-05-06 15:17 | 41.27573 | 28.72976 | 338 ft | 5 kts | 178° |
| 2026-05-06 15:17 | 41.27528 | 28.72978 | 338 ft | 7 kts | 178° |
| 2026-05-06 15:17 | 41.27463 | 28.72981 | 338 ft | 10 kts | 179° |
| 2026-05-06 15:17 | 41.27376 | 28.72982 | 338 ft | 13 kts | 180° |
| 2026-05-06 15:18 | 41.27269 | 28.72982 | 338 ft | 16 kts | 180° |
| 2026-05-06 15:18 | 41.27141 | 28.72986 | 338 ft | 19 kts | 178° |
| 2026-05-06 15:18 | 41.26994 | 28.72991 | 338 ft | 22 kts | 171° |
| 2026-05-06 15:18 | 41.26945 | 28.73165 | 338 ft | 23 kts | 88° |
| 2026-05-06 15:19 | 41.26947 | 28.73389 | 338 ft | 25 kts | 89° |
| 2026-05-06 15:19 | 41.26950 | 28.73637 | 338 ft | 28 kts | 89° |
| 2026-05-06 15:19 | 41.26953 | 28.73905 | 338 ft | 30 kts | 89° |
| 2026-05-06 15:19 | 41.26913 | 28.73963 | 338 ft | 9 kts | 209° |
| 2026-05-06 15:20 | 41.26860 | 28.73899 | 338 ft | 11 kts | 224° |
| 2026-05-06 15:20 | 41.26780 | 28.73875 | 338 ft | 13 kts | 181° |
| 2026-05-06 15:20 | 41.26720 | 28.73813 | 338 ft | 11 kts | 255° |
| 2026-05-06 15:20 | 41.26716 | 28.73770 | 338 ft | 0 kts | 266° |
| 2026-05-06 15:21 | 41.26716 | 28.73764 | 338 ft | 1 kts | 268° |
| 2026-05-06 15:21 | 41.26716 | 28.73761 | 338 ft | 0 kts | 269° |